sensor_id;sensor_type;location;lat;lon;timestamp;pressure;altitude;pressure_sealevel;temperature;humidity
13478;BME280;12598;62.382;17.344;2023-08-12T00:00:15;101437.63;;;25.93;38.12
13478;BME280;12598;62.382;17.344;2023-08-12T00:01:20;101434.91;;;25.93;37.78
13478;BME280;12598;62.382;17.344;2023-08-12T00:02:23;101429.47;;;25.93;38.23
13478;BME280;12598;62.382;17.344;2023-08-12T00:03:25;101432.19;;;25.93;38.08
13478;BME280;12598;62.382;17.344;2023-08-12T00:04:27;101435.94;;;25.92;38.09
13478;BME280;12598;62.382;17.344;2023-08-12T00:05:29;101442.56;;;25.90;38.08
13478;BME280;12598;62.382;17.344;2023-08-12T00:06:31;101440.88;;;25.89;37.85
13478;BME280;12598;62.382;17.344;2023-08-12T00:07:34;101434.63;;;25.88;37.96
13478;BME280;12598;62.382;17.344;2023-08-12T00:08:36;101441.06;;;25.87;37.72
13478;BME280;12598;62.382;17.344;2023-08-12T00:09:38;101438.34;;;25.87;38.11
13478;BME280;12598;62.382;17.344;2023-08-12T00:10:39;101442.09;;;25.86;38.05
13478;BME280;12598;62.382;17.344;2023-08-12T00:11:41;101441.25;;;25.86;37.81
13478;BME280;12598;62.382;17.344;2023-08-12T00:12:43;101434.97;;;25.85;37.90
13478;BME280;12598;62.382;17.344;2023-08-12T00:13:45;101436.00;;;25.84;38.28
13478;BME280;12598;62.382;17.344;2023-08-12T00:14:47;101429.94;;;25.82;37.83
13478;BME280;12598;62.382;17.344;2023-08-12T00:15:49;101431.59;;;25.83;37.82
13478;BME280;12598;62.382;17.344;2023-08-12T00:16:51;101429.94;;;25.82;37.90
13478;BME280;12598;62.382;17.344;2023-08-12T00:17:53;101423.81;;;25.80;37.85
13478;BME280;12598;62.382;17.344;2023-08-12T00:18:55;101421.00;;;25.74;37.97
13478;BME280;12598;62.382;17.344;2023-08-12T00:19:57;101431.13;;;25.80;38.21
13478;BME280;12598;62.382;17.344;2023-08-12T00:20:59;101419.97;;;25.75;37.90
13478;BME280;12598;62.382;17.344;2023-08-12T00:22:01;101425.88;;;25.78;38.03
13478;BME280;12598;62.382;17.344;2023-08-12T00:23:04;101423.34;;;25.77;37.99
13478;BME280;12598;62.382;17.344;2023-08-12T00:24:06;101426.88;;;25.77;38.20
13478;BME280;12598;62.382;17.344;2023-08-12T00:25:08;101413.03;;;25.72;38.07
13478;BME280;12598;62.382;17.344;2023-08-12T00:26:10;101425.19;;;25.76;37.94
13478;BME280;12598;62.382;17.344;2023-08-12T00:27:12;101419.97;;;25.75;38.10
13478;BME280;12598;62.382;17.344;2023-08-12T00:28:14;101422.69;;;25.75;38.14
13478;BME280;12598;62.382;17.344;2023-08-12T00:29:16;101420.81;;;25.75;38.03
13478;BME280;12598;62.382;17.344;2023-08-12T00:30:18;101421.84;;;25.74;37.98
13478;BME280;12598;62.382;17.344;2023-08-12T00:31:20;101434.72;;;25.72;37.81
13478;BME280;12598;62.382;17.344;2023-08-12T00:32:22;101433.69;;;25.73;38.22
13478;BME280;12598;62.382;17.344;2023-08-12T00:33:24;101430.31;;;25.71;38.13
13478;BME280;12598;62.382;17.344;2023-08-12T00:34:26;101439.28;;;25.72;37.71
13478;BME280;12598;62.382;17.344;2023-08-12T00:35:28;101427.63;;;25.71;38.08
13478;BME280;12598;62.382;17.344;2023-08-12T00:36:30;101432.19;;;25.71;37.82
13478;BME280;12598;62.382;17.344;2023-08-12T00:37:32;101431.34;;;25.70;37.84
13478;BME280;12598;62.382;17.344;2023-08-12T00:38:34;101435.91;;;25.70;38.29
13478;BME280;12598;62.382;17.344;2023-08-12T00:39:36;101439.84;;;25.67;37.86
13478;BME280;12598;62.382;17.344;2023-08-12T00:40:38;101429.00;;;25.67;38.30
13478;BME280;12598;62.382;17.344;2023-08-12T00:41:40;101435.25;;;25.68;38.13
13478;BME280;12598;62.382;17.344;2023-08-12T00:42:41;101428.34;;;25.65;38.37
13478;BME280;12598;62.382;17.344;2023-08-12T00:43:43;101428.34;;;25.65;38.06
13478;BME280;12598;62.382;17.344;2023-08-12T00:44:45;101427.69;;;25.63;38.20
13478;BME280;12598;62.382;17.344;2023-08-12T00:45:48;101426.66;;;25.64;37.98
13478;BME280;12598;62.382;17.344;2023-08-12T00:46:50;101426.66;;;25.64;38.23
13478;BME280;12598;62.382;17.344;2023-08-12T00:47:53;101397.16;;;25.47;38.39
13478;BME280;12598;62.382;17.344;2023-08-12T00:48:55;101425.81;;;25.64;37.84
13478;BME280;12598;62.382;17.344;2023-08-12T00:49:59;101423.94;;;25.64;38.16
13478;BME280;12598;62.382;17.344;2023-08-12T00:51:01;101424.13;;;25.63;37.93
13478;BME280;12598;62.382;17.344;2023-08-12T00:52:03;101420.94;;;25.60;38.08
13478;BME280;12598;62.382;17.344;2023-08-12T00:53:06;101417.75;;;25.56;37.96
13478;BME280;12598;62.382;17.344;2023-08-12T00:54:12;101424.31;;;25.62;37.82
13478;BME280;12598;62.382;17.344;2023-08-12T00:55:15;101424.13;;;25.63;37.69
13478;BME280;12598;62.382;17.344;2023-08-12T00:56:18;101418.91;;;25.62;37.91
13478;BME280;12598;62.382;17.344;2023-08-12T00:57:20;101419.06;;;25.60;37.74
13478;BME280;12598;62.382;17.344;2023-08-12T00:58:22;101422.78;;;25.59;37.96
13478;BME280;12598;62.382;17.344;2023-08-12T00:59:25;101417.56;;;25.58;38.06
13478;BME280;12598;62.382;17.344;2023-08-12T01:00:27;101420.28;;;25.58;38.30
13478;BME280;12598;62.382;17.344;2023-08-12T01:01:29;101424.03;;;25.57;38.11
13478;BME280;12598;62.382;17.344;2023-08-12T01:02:31;101426.72;;;25.57;37.75
13478;BME280;12598;62.382;17.344;2023-08-12T01:03:34;101421.31;;;25.57;38.06
13478;BME280;12598;62.382;17.344;2023-08-12T01:04:36;101417.75;;;25.56;38.05
13478;BME280;12598;62.382;17.344;2023-08-12T01:05:38;101413.88;;;25.51;37.94
13478;BME280;12598;62.382;17.344;2023-08-12T01:06:44;101420.66;;;25.55;37.84
13478;BME280;12598;62.382;17.344;2023-08-12T01:07:46;101416.91;;;25.56;37.99
13478;BME280;12598;62.382;17.344;2023-08-12T01:08:50;101418.97;;;25.54;37.69
13478;BME280;12598;62.382;17.344;2023-08-12T01:09:52;101413.53;;;25.54;38.07
13478;BME280;12598;62.382;17.344;2023-08-12T01:11:23;101419.13;;;25.52;37.79
13478;BME280;12598;62.382;17.344;2023-08-12T01:12:31;101423.47;;;25.61;37.75
13478;BME280;12598;62.382;17.344;2023-08-12T01:14:53;101414.88;;;25.58;37.75
13478;BME280;12598;62.382;17.344;2023-08-12T01:15:58;101424.03;;;25.57;37.91
13478;BME280;12598;62.382;17.344;2023-08-12T01:17:06;101426.06;;;25.55;37.75
13478;BME280;12598;62.382;17.344;2023-08-12T01:18:09;101418.97;;;25.54;38.05
13478;BME280;12598;62.382;17.344;2023-08-12T01:19:25;101414.38;;;25.54;37.89
13478;BME280;12598;62.382;17.344;2023-08-12T01:20:31;101416.91;;;25.56;37.56
13478;BME280;12598;62.382;17.344;2023-08-12T01:21:36;101418.31;;;25.52;38.04
13478;BME280;12598;62.382;17.344;2023-08-12T01:22:44;101410.34;;;25.50;37.57
13478;BME280;12598;62.382;17.344;2023-08-12T01:23:47;101412.19;;;25.50;37.89
13478;BME280;12598;62.382;17.344;2023-08-12T01:24:51;101415.09;;;25.48;37.67
13478;BME280;12598;62.382;17.344;2023-08-12T01:25:53;101405.44;;;25.46;37.63
13478;BME280;12598;62.382;17.344;2023-08-12T01:26:55;101393.66;;;25.39;37.79
13478;BME280;12598;62.382;17.344;2023-08-12T01:27:57;101415.47;;;25.45;38.18
13478;BME280;12598;62.382;17.344;2023-08-12T01:28:59;101407.50;;;25.44;37.97
13478;BME280;12598;62.382;17.344;2023-08-12T01:30:01;101412.09;;;25.43;37.89
13478;BME280;12598;62.382;17.344;2023-08-12T01:31:16;101408.34;;;25.44;38.09
13478;BME280;12598;62.382;17.344;2023-08-12T01:32:29;101405.44;;;25.46;37.93
13478;BME280;12598;62.382;17.344;2023-08-12T01:33:42;101404.25;;;25.48;38.13
13478;BME280;12598;62.382;17.344;2023-08-12T01:35:01;101402.38;;;25.49;37.78
13478;BME280;12598;62.382;17.344;2023-08-12T01:36:16;101394.91;;;25.51;37.74
13478;BME280;12598;62.382;17.344;2023-08-12T01:37:24;101398.00;;;25.48;37.55
13478;BME280;12598;62.382;17.344;2023-08-12T01:38:28;101388.38;;;25.45;37.94
13478;BME280;12598;62.382;17.344;2023-08-12T01:39:30;101397.69;;;25.43;38.07
13478;BME280;12598;62.382;17.344;2023-08-12T01:40:33;101399.94;;;25.39;37.98
13478;BME280;12598;62.382;17.344;2023-08-12T01:41:35;101401.78;;;25.39;37.95
13478;BME280;12598;62.382;17.344;2023-08-12T01:42:39;101403.66;;;25.38;37.95
13478;BME280;12598;62.382;17.344;2023-08-12T01:43:42;101399.06;;;25.39;37.61
13478;BME280;12598;62.382;17.344;2023-08-12T01:44:44;101395.72;;;25.37;38.22
13478;BME280;12598;62.382;17.344;2023-08-12T01:45:46;101386.47;;;25.31;38.00
13478;BME280;12598;62.382;17.344;2023-08-12T01:46:48;101394.03;;;25.36;37.92
13478;BME280;12598;62.382;17.344;2023-08-12T01:47:52;101394.03;;;25.36;38.03
13478;BME280;12598;62.382;17.344;2023-08-12T01:48:56;101385.91;;;25.36;38.03
13478;BME280;12598;62.382;17.344;2023-08-12T01:49:58;101392.34;;;25.35;38.08
13478;BME280;12598;62.382;17.344;2023-08-12T01:51:00;101384.22;;;25.35;37.61
13478;BME280;12598;62.382;17.344;2023-08-12T01:52:02;101385.44;;;25.32;38.25
13478;BME280;12598;62.382;17.344;2023-08-12T01:53:04;101388.97;;;25.33;37.64
13478;BME280;12598;62.382;17.344;2023-08-12T01:54:06;101396.06;;;25.34;38.03
13478;BME280;12598;62.382;17.344;2023-08-12T01:55:08;101391.88;;;25.31;37.67
13478;BME280;12598;62.382;17.344;2023-08-12T01:56:10;101371.47;;;25.21;38.18
13478;BME280;12598;62.382;17.344;2023-08-12T01:57:12;101391.88;;;25.31;38.03
13478;BME280;12598;62.382;17.344;2023-08-12T01:58:15;101390.16;;;25.30;37.61
13478;BME280;12598;62.382;17.344;2023-08-12T01:59:17;101392.88;;;25.30;38.05
13478;BME280;12598;62.382;17.344;2023-08-12T02:00:19;101395.47;;;25.24;37.82
13478;BME280;12598;62.382;17.344;2023-08-12T02:01:20;101393.06;;;25.29;37.74
13478;BME280;12598;62.382;17.344;2023-08-12T02:02:22;101386.63;;;25.30;37.65
13478;BME280;12598;62.382;17.344;2023-08-12T02:03:24;101400.53;;;25.27;37.70
13478;BME280;12598;62.382;17.344;2023-08-12T02:04:27;101404.91;;;25.28;38.19
13478;BME280;12598;62.382;17.344;2023-08-12T02:05:29;101404.91;;;25.28;38.06
13478;BME280;12598;62.382;17.344;2023-08-12T02:06:31;101413.03;;;25.28;37.88
13478;BME280;12598;62.382;17.344;2023-08-12T02:07:34;101409.31;;;25.29;38.12
13478;BME280;12598;62.382;17.344;2023-08-12T02:08:35;101410.31;;;25.28;37.81
13478;BME280;12598;62.382;17.344;2023-08-12T02:09:37;101415.75;;;25.28;38.39
13478;BME280;12598;62.382;17.344;2023-08-12T02:10:39;101416.75;;;25.27;38.25
13478;BME280;12598;62.382;17.344;2023-08-12T02:11:41;101410.50;;;25.26;37.89
13478;BME280;12598;62.382;17.344;2023-08-12T02:12:43;101416.75;;;25.27;37.74
13478;BME280;12598;62.382;17.344;2023-08-12T02:13:45;101410.19;;;25.21;38.30
13478;BME280;12598;62.382;17.344;2023-08-12T02:14:47;101387.38;;;25.08;38.10
13478;BME280;12598;62.382;17.344;2023-08-12T02:15:49;101416.94;;;25.25;38.15
13478;BME280;12598;62.382;17.344;2023-08-12T02:16:51;101416.09;;;25.25;38.50
13478;BME280;12598;62.382;17.344;2023-08-12T02:17:55;101420.50;;;25.26;38.23
13478;BME280;12598;62.382;17.344;2023-08-12T02:18:57;101423.19;;;25.26;38.09
13478;BME280;12598;62.382;17.344;2023-08-12T02:19:59;101410.38;;;25.20;38.18
13478;BME280;12598;62.382;17.344;2023-08-12T02:21:01;101423.38;;;25.24;38.22
13478;BME280;12598;62.382;17.344;2023-08-12T02:22:03;101418.97;;;25.23;37.97
13478;BME280;12598;62.382;17.344;2023-08-12T02:23:05;101417.13;;;25.24;38.39
13478;BME280;12598;62.382;17.344;2023-08-12T02:24:08;101415.44;;;25.23;37.98
13478;BME280;12598;62.382;17.344;2023-08-12T02:25:11;101406.81;;;25.19;38.43
13478;BME280;12598;62.382;17.344;2023-08-12T02:26:13;101416.25;;;25.23;38.19
13478;BME280;12598;62.382;17.344;2023-08-12T02:27:15;101419.16;;;25.22;38.23
13478;BME280;12598;62.382;17.344;2023-08-12T02:28:17;101419.16;;;25.22;38.49
13478;BME280;12598;62.382;17.344;2023-08-12T02:29:19;101419.16;;;25.22;38.43
13478;BME280;12598;62.382;17.344;2023-08-12T02:30:21;101412.91;;;25.21;38.50
13478;BME280;12598;62.382;17.344;2023-08-12T02:31:23;101411.03;;;25.22;38.12
13478;BME280;12598;62.382;17.344;2023-08-12T02:32:25;101413.75;;;25.22;38.70
13478;BME280;12598;62.382;17.344;2023-08-12T02:33:27;101413.75;;;25.22;38.35
13478;BME280;12598;62.382;17.344;2023-08-12T02:34:29;101417.47;;;25.21;38.61
13478;BME280;12598;62.382;17.344;2023-08-12T02:35:32;101410.38;;;25.20;38.25
13478;BME280;12598;62.382;17.344;2023-08-12T02:36:34;101412.06;;;25.21;38.42
13478;BME280;12598;62.382;17.344;2023-08-12T02:37:36;101410.38;;;25.20;38.80
13478;BME280;12598;62.382;17.344;2023-08-12T02:38:38;101411.22;;;25.20;38.25
13478;BME280;12598;62.382;17.344;2023-08-12T02:39:40;101410.38;;;25.20;38.37
13478;BME280;12598;62.382;17.344;2023-08-12T02:40:41;101404.31;;;25.18;38.46
13478;BME280;12598;62.382;17.344;2023-08-12T02:41:44;101403.59;;;25.16;38.46
13478;BME280;12598;62.382;17.344;2023-08-12T02:42:46;101413.09;;;25.20;38.62
13478;BME280;12598;62.382;17.344;2023-08-12T02:43:48;101408.69;;;25.19;38.30
13478;BME280;12598;62.382;17.344;2023-08-12T02:44:50;101408.69;;;25.19;38.13
13478;BME280;12598;62.382;17.344;2023-08-12T02:45:52;101414.94;;;25.19;38.80
13478;BME280;12598;62.382;17.344;2023-08-12T02:46:54;101411.41;;;25.19;38.12
13478;BME280;12598;62.382;17.344;2023-08-12T02:47:56;101402.44;;;25.18;38.32
13478;BME280;12598;62.382;17.344;2023-08-12T02:48:58;101414.13;;;25.19;38.71
13478;BME280;12598;62.382;17.344;2023-08-12T02:50:00;101408.69;;;25.19;38.32
13478;BME280;12598;62.382;17.344;2023-08-12T02:51:02;101395.84;;;25.13;38.62
13478;BME280;12598;62.382;17.344;2023-08-12T02:52:04;101380.66;;;25.04;38.42
13478;BME280;12598;62.382;17.344;2023-08-12T02:53:06;101398.91;;;25.18;38.37
13478;BME280;12598;62.382;17.344;2023-08-12T02:54:08;101399.91;;;25.17;38.38
13478;BME280;12598;62.382;17.344;2023-08-12T02:55:10;101404.31;;;25.18;38.87
13478;BME280;12598;62.382;17.344;2023-08-12T02:56:13;101402.63;;;25.17;38.68
13478;BME280;12598;62.382;17.344;2023-08-12T02:57:15;101401.59;;;25.18;38.71
13478;BME280;12598;62.382;17.344;2023-08-12T02:58:16;101399.91;;;25.17;38.42
13478;BME280;12598;62.382;17.344;2023-08-12T02:59:18;101399.91;;;25.17;38.38
13478;BME280;12598;62.382;17.344;2023-08-12T03:00:20;101403.59;;;25.16;38.38
13478;BME280;12598;62.382;17.344;2023-08-12T03:01:23;101398.19;;;25.16;38.46
13478;BME280;12598;62.382;17.344;2023-08-12T03:02:26;101402.75;;;25.15;38.33
13478;BME280;12598;62.382;17.344;2023-08-12T03:03:28;101391.09;;;25.15;38.36
13478;BME280;12598;62.382;17.344;2023-08-12T03:04:30;101372.53;;;25.04;38.52
13478;BME280;12598;62.382;17.344;2023-08-12T03:05:32;101389.41;;;25.14;38.41
13478;BME280;12598;62.382;17.344;2023-08-12T03:06:34;101392.13;;;25.14;38.73
13478;BME280;12598;62.382;17.344;2023-08-12T03:07:36;101383.00;;;25.07;38.75
13478;BME280;12598;62.382;17.344;2023-08-12T03:08:38;101391.25;;;25.13;38.40
13478;BME280;12598;62.382;17.344;2023-08-12T03:09:41;101388.56;;;25.13;38.57
13478;BME280;12598;62.382;17.344;2023-08-12T03:10:44;101388.75;;;25.12;38.52
13478;BME280;12598;62.382;17.344;2023-08-12T03:11:48;101390.25;;;25.14;38.65
13478;BME280;12598;62.382;17.344;2023-08-12T03:12:50;101384.66;;;25.16;38.53
13478;BME280;12598;62.382;17.344;2023-08-12T03:13:53;101387.72;;;25.13;38.74
13478;BME280;12598;62.382;17.344;2023-08-12T03:14:58;101393.81;;;25.15;38.44
13478;BME280;12598;62.382;17.344;2023-08-12T03:16:01;101389.41;;;25.14;38.23
13478;BME280;12598;62.382;17.344;2023-08-12T03:17:03;101394.81;;;25.14;38.85
13478;BME280;12598;62.382;17.344;2023-08-12T03:18:07;101388.56;;;25.13;38.41
13478;BME280;12598;62.382;17.344;2023-08-12T03:19:09;101389.56;;;25.12;38.56
13478;BME280;12598;62.382;17.344;2023-08-12T03:20:11;101382.31;;;25.13;38.60
13478;BME280;12598;62.382;17.344;2023-08-12T03:21:13;101393.13;;;25.13;38.18
13478;BME280;12598;62.382;17.344;2023-08-12T03:22:16;101381.44;;;25.12;38.58
13478;BME280;12598;62.382;17.344;2023-08-12T03:23:18;101388.75;;;25.12;38.87
13478;BME280;12598;62.382;17.344;2023-08-12T03:24:19;101384.34;;;25.11;38.58
13478;BME280;12598;62.382;17.344;2023-08-12T03:25:22;101384.34;;;25.11;38.91
13478;BME280;12598;62.382;17.344;2023-08-12T03:26:24;101382.47;;;25.11;38.54
13478;BME280;12598;62.382;17.344;2023-08-12T03:27:28;101383.50;;;25.10;38.85
13478;BME280;12598;62.382;17.344;2023-08-12T03:28:30;101365.44;;;25.03;38.33
13478;BME280;12598;62.382;17.344;2023-08-12T03:29:32;101382.47;;;25.11;38.64
13478;BME280;12598;62.382;17.344;2023-08-12T03:30:35;101375.91;;;25.06;39.02
13478;BME280;12598;62.382;17.344;2023-08-12T03:31:37;101378.94;;;25.11;38.83
13478;BME280;12598;62.382;17.344;2023-08-12T03:32:39;101388.09;;;25.10;38.72
13478;BME280;12598;62.382;17.344;2023-08-12T03:33:41;101380.78;;;25.10;38.98
13478;BME280;12598;62.382;17.344;2023-08-12T03:34:43;101378.94;;;25.11;38.57
13478;BME280;12598;62.382;17.344;2023-08-12T03:35:47;101379.97;;;25.10;38.77
13478;BME280;12598;62.382;17.344;2023-08-12T03:36:49;101384.34;;;25.11;38.90
13478;BME280;12598;62.382;17.344;2023-08-12T03:37:53;101381.66;;;25.11;38.61
13478;BME280;12598;62.382;17.344;2023-08-12T03:38:56;101381.97;;;25.08;38.88
13478;BME280;12598;62.382;17.344;2023-08-12T03:40:01;101387.91;;;25.11;38.63
13478;BME280;12598;62.382;17.344;2023-08-12T03:41:03;101376.75;;;25.06;38.60
13478;BME280;12598;62.382;17.344;2023-08-12T03:42:07;101384.16;;;25.12;38.73
13478;BME280;12598;62.382;17.344;2023-08-12T03:43:09;101382.66;;;25.10;39.03
13478;BME280;12598;62.382;17.344;2023-08-12T03:44:12;101377.25;;;25.10;39.04
13478;BME280;12598;62.382;17.344;2023-08-12T03:45:14;101378.94;;;25.11;38.91
13478;BME280;12598;62.382;17.344;2023-08-12T03:46:17;101377.25;;;25.10;38.61
13478;BME280;12598;62.382;17.344;2023-08-12T03:47:19;101374.56;;;25.10;38.48
13478;BME280;12598;62.382;17.344;2023-08-12T03:48:25;101373.53;;;25.11;39.10
13478;BME280;12598;62.382;17.344;2023-08-12T03:49:28;101379.09;;;25.09;38.67
13478;BME280;12598;62.382;17.344;2023-08-12T03:50:35;101379.81;;;25.03;38.95
13478;BME280;12598;62.382;17.344;2023-08-12T03:51:37;101384.34;;;25.11;38.57
13478;BME280;12598;62.382;17.344;2023-08-12T03:52:39;101388.09;;;25.10;38.69
13478;BME280;12598;62.382;17.344;2023-08-12T03:53:42;101382.66;;;25.10;39.07
13478;BME280;12598;62.382;17.344;2023-08-12T03:54:44;101381.81;;;25.09;39.07
13478;BME280;12598;62.382;17.344;2023-08-12T03:55:46;101384.53;;;25.09;39.12
13478;BME280;12598;62.382;17.344;2023-08-12T03:56:50;101380.94;;;25.09;39.05
13478;BME280;12598;62.382;17.344;2023-08-12T03:57:52;101380.94;;;25.09;38.98
13478;BME280;12598;62.382;17.344;2023-08-12T03:58:55;101379.28;;;25.08;38.78
13478;BME280;12598;62.382;17.344;2023-08-12T03:59:57;101380.13;;;25.08;39.30
13478;BME280;12598;62.382;17.344;2023-08-12T04:01:00;101382.84;;;25.08;39.03
13478;BME280;12598;62.382;17.344;2023-08-12T04:02:02;101373.03;;;25.07;39.14
13478;BME280;12598;62.382;17.344;2023-08-12T04:03:05;101374.72;;;25.08;38.99
13478;BME280;12598;62.382;17.344;2023-08-12T04:04:08;101377.41;;;25.08;38.67
13478;BME280;12598;62.382;17.344;2023-08-12T04:05:13;101375.53;;;25.09;38.99
13478;BME280;12598;62.382;17.344;2023-08-12T04:06:15;101376.56;;;25.08;39.02
13478;BME280;12598;62.382;17.344;2023-08-12T04:07:17;101368.44;;;25.08;39.06
13478;BME280;12598;62.382;17.344;2023-08-12T04:08:20;101377.59;;;25.07;39.25
13478;BME280;12598;62.382;17.344;2023-08-12T04:09:22;101373.84;;;25.08;38.96
13478;BME280;12598;62.382;17.344;2023-08-12T04:10:24;101372.19;;;25.07;39.11
13478;BME280;12598;62.382;17.344;2023-08-12T04:11:27;101372.53;;;25.04;39.05
13478;BME280;12598;62.382;17.344;2023-08-12T04:12:29;101375.06;;;25.05;38.98
13478;BME280;12598;62.382;17.344;2023-08-12T04:13:31;101377.59;;;25.07;39.55
13478;BME280;12598;62.382;17.344;2023-08-12T04:14:33;101374.88;;;25.07;39.03
13478;BME280;12598;62.382;17.344;2023-08-12T04:15:35;101378.59;;;25.06;39.58
13478;BME280;12598;62.382;17.344;2023-08-12T04:16:37;101383.00;;;25.07;39.62
13478;BME280;12598;62.382;17.344;2023-08-12T04:17:39;101381.31;;;25.06;39.61
13478;BME280;12598;62.382;17.344;2023-08-12T04:18:43;101374.88;;;25.07;39.44
13478;BME280;12598;62.382;17.344;2023-08-12T04:19:45;101366.75;;;25.07;39.40
13478;BME280;12598;62.382;17.344;2023-08-12T04:20:52;101371.34;;;25.06;39.54
13478;BME280;12598;62.382;17.344;2023-08-12T04:21:54;101371.16;;;25.08;39.35
13478;BME280;12598;62.382;17.344;2023-08-12T04:22:56;101376.56;;;25.08;39.66
13478;BME280;12598;62.382;17.344;2023-08-12T04:23:58;101367.63;;;25.07;39.01
13478;BME280;12598;62.382;17.344;2023-08-12T04:25:00;101372.19;;;25.07;39.62
13478;BME280;12598;62.382;17.344;2023-08-12T04:26:02;101371.34;;;25.06;39.23
13478;BME280;12598;62.382;17.344;2023-08-12T04:27:04;101374.88;;;25.07;39.09
13478;BME280;12598;62.382;17.344;2023-08-12T04:28:06;101370.50;;;25.06;39.58
13478;BME280;12598;62.382;17.344;2023-08-12T04:29:08;101373.19;;;25.06;39.33
13478;BME280;12598;62.382;17.344;2023-08-12T04:30:14;101373.19;;;25.06;39.84
13478;BME280;12598;62.382;17.344;2023-08-12T04:31:16;101371.34;;;25.06;39.85
13478;BME280;12598;62.382;17.344;2023-08-12T04:32:18;101376.75;;;25.06;39.36
13478;BME280;12598;62.382;17.344;2023-08-12T04:33:19;101369.34;;;25.00;39.60
13478;BME280;12598;62.382;17.344;2023-08-12T04:34:22;101365.94;;;25.06;39.17
13478;BME280;12598;62.382;17.344;2023-08-12T04:35:26;101370.31;;;25.07;39.63
13478;BME280;12598;62.382;17.344;2023-08-12T04:36:29;101356.78;;;25.07;39.89
13478;BME280;12598;62.382;17.344;2023-08-12T04:37:33;101358.63;;;25.07;39.76
13478;BME280;12598;62.382;17.344;2023-08-12T04:38:36;101348.53;;;25.01;39.77
13478;BME280;12598;62.382;17.344;2023-08-12T04:39:41;101363.03;;;25.08;39.49
13478;BME280;12598;62.382;17.344;2023-08-12T04:40:44;101367.63;;;25.07;39.31
13478;BME280;12598;62.382;17.344;2023-08-12T04:41:46;101357.63;;;25.08;39.90
13478;BME280;12598;62.382;17.344;2023-08-12T04:42:49;101352.22;;;25.08;39.45
13478;BME280;12598;62.382;17.344;2023-08-12T04:43:52;101333.38;;;24.92;39.95
13478;BME280;12598;62.382;17.344;2023-08-12T04:44:56;101350.88;;;25.04;39.72
13478;BME280;12598;62.382;17.344;2023-08-12T04:45:58;101368.44;;;25.08;40.27
13478;BME280;12598;62.382;17.344;2023-08-12T04:47:01;101362.00;;;25.09;39.60
13478;BME280;12598;62.382;17.344;2023-08-12T04:48:04;101363.03;;;25.08;39.67
13478;BME280;12598;62.382;17.344;2023-08-12T04:49:08;101371.00;;;25.09;39.81
13478;BME280;12598;62.382;17.344;2023-08-12T04:50:10;101371.00;;;25.09;39.63
13478;BME280;12598;62.382;17.344;2023-08-12T04:51:12;101367.44;;;25.09;40.07
13478;BME280;12598;62.382;17.344;2023-08-12T04:52:14;101368.44;;;25.08;40.01
13478;BME280;12598;62.382;17.344;2023-08-12T04:53:16;101368.44;;;25.08;39.76
13478;BME280;12598;62.382;17.344;2023-08-12T04:54:18;101366.09;;;25.05;40.10
13478;BME280;12598;62.382;17.344;2023-08-12T04:55:21;101373.84;;;25.08;39.61
13478;BME280;12598;62.382;17.344;2023-08-12T04:56:23;101358.34;;;25.02;39.87
13478;BME280;12598;62.382;17.344;2023-08-12T04:57:26;101366.59;;;25.08;39.74
13478;BME280;12598;62.382;17.344;2023-08-12T04:58:28;101375.53;;;25.09;39.99
13478;BME280;12598;62.382;17.344;2023-08-12T04:59:30;101377.25;;;25.10;40.01
13478;BME280;12598;62.382;17.344;2023-08-12T05:00:32;101382.66;;;25.10;39.99
13478;BME280;12598;62.382;17.344;2023-08-12T05:01:35;101379.97;;;25.10;39.70
13478;BME280;12598;62.382;17.344;2023-08-12T05:02:38;101378.94;;;25.11;40.02
13478;BME280;12598;62.382;17.344;2023-08-12T05:03:41;101377.25;;;25.10;40.32
13478;BME280;12598;62.382;17.344;2023-08-12T05:04:48;101379.09;;;25.09;40.34
13478;BME280;12598;62.382;17.344;2023-08-12T05:05:51;101376.91;;;25.13;39.75
13478;BME280;12598;62.382;17.344;2023-08-12T05:06:56;101376.91;;;25.13;39.99
13478;BME280;12598;62.382;17.344;2023-08-12T05:07:59;101370.13;;;25.09;39.98
13478;BME280;12598;62.382;17.344;2023-08-12T05:09:01;101362.00;;;25.09;40.10
13478;BME280;12598;62.382;17.344;2023-08-12T05:10:05;101357.97;;;25.05;40.32
13478;BME280;12598;62.382;17.344;2023-08-12T05:11:07;101365.75;;;25.08;40.37
13478;BME280;12598;62.382;17.344;2023-08-12T05:12:12;101364.38;;;25.12;40.51
13478;BME280;12598;62.382;17.344;2023-08-12T05:13:15;101361.19;;;25.08;40.19
13478;BME280;12598;62.382;17.344;2023-08-12T05:14:17;101363.38;;;25.13;40.42
13478;BME280;12598;62.382;17.344;2023-08-12T05:15:19;101373.34;;;25.12;40.28
13478;BME280;12598;62.382;17.344;2023-08-12T05:16:22;101364.19;;;25.13;40.53
13478;BME280;12598;62.382;17.344;2023-08-12T05:17:24;101366.06;;;25.13;40.51
13478;BME280;12598;62.382;17.344;2023-08-12T05:18:26;101367.09;;;25.12;39.89
13478;BME280;12598;62.382;17.344;2023-08-12T05:19:30;101366.06;;;25.13;40.28
13478;BME280;12598;62.382;17.344;2023-08-12T05:20:32;101362.72;;;25.11;40.04
13478;BME280;12598;62.382;17.344;2023-08-12T05:21:34;101366.06;;;25.13;40.47
13478;BME280;12598;62.382;17.344;2023-08-12T05:22:36;101366.06;;;25.13;39.95
13478;BME280;12598;62.382;17.344;2023-08-12T05:23:38;101357.63;;;25.08;40.23
13478;BME280;12598;62.382;17.344;2023-08-12T05:24:40;101368.78;;;25.13;40.26
13478;BME280;12598;62.382;17.344;2023-08-12T05:25:42;101366.91;;;25.13;40.28